Time;durP1;ratioP1;P1;durP2;ratioP2;P2;SDS_P1;SDS_P2;PMS_P1;PMS_P2;Temp;Humidity;BMP_temperature;BMP_pressure;BME280_temperature;BME280_humidity;BME280_pressure;Samples;Min_cycle;Max_cycle;Signal;HPM_P1;HPM_P2
2022/05/12 00:00:35;;;;;;;7.40;3.67;;;;;;;;;;5029156;28;20207;-73
2022/05/12 00:03:05;;;;;;;7.97;3.70;;;;;;;;;;5030308;28;20681;-73
2022/05/12 00:05:33;;;;;;;6.50;3.80;;;;;;;;;;5029074;28;20208;-73
2022/05/12 00:08:01;;;;;;;6.23;3.50;;;;;;;;;;5030022;28;20311;-72
2022/05/12 00:10:31;;;;;;;7.40;3.87;;;;;;;;;;5034186;28;20204;-72
2022/05/12 00:13:00;;;;;;;5.47;3.60;;;;;;;;;;5034284;28;20258;-72
2022/05/12 00:15:31;;;;;;;4.93;3.27;;;;;;;;;;5033359;28;20207;-73
2022/05/12 00:18:02;;;;;;;6.43;3.97;;;;;;;;;;5034123;28;20231;-72
2022/05/12 00:20:30;;;;;;;7.50;3.87;;;;;;;;;;5033312;28;20239;-73
2022/05/12 00:23:07;;;;;;;6.37;3.50;;;;;;;;;;5033389;28;20215;-73
2022/05/12 00:25:37;;;;;;;5.10;3.67;;;;;;;;;;5033017;28;20265;-72
2022/05/12 00:28:05;;;;;;;5.77;3.53;;;;;;;;;;5033555;28;20653;-73
2022/05/12 00:30:34;;;;;;;6.67;3.63;;;;;;;;;;5033615;28;20215;-73
2022/05/12 00:33:02;;;;;;;5.33;3.60;;;;;;;;;;5033357;28;20303;-72
2022/05/12 00:35:35;;;;;;;6.50;3.20;;;;;;;;;;5031080;28;20585;-72
2022/05/12 00:38:04;;;;;;;5.53;3.40;;;;;;;;;;5033650;28;20227;-72
2022/05/12 00:40:32;;;;;;;5.13;3.30;;;;;;;;;;5032462;28;20667;-72
2022/05/12 00:43:04;;;;;;;7.50;3.43;;;;;;;;;;5033610;28;20207;-73
2022/05/12 00:45:35;;;;;;;6.27;3.70;;;;;;;;;;5032941;28;20204;-72
2022/05/12 00:48:04;;;;;;;6.40;3.60;;;;;;;;;;5032591;28;20323;-71
2022/05/12 00:50:43;;;;;;;8.20;3.53;;;;;;;;;;5033065;28;20215;-72
2022/05/12 00:53:13;;;;;;;5.23;3.30;;;;;;;;;;5032884;28;20211;-73
2022/05/12 00:55:43;;;;;;;6.40;3.27;;;;;;;;;;5031334;28;20203;-72
2022/05/12 00:58:15;;;;;;;7.40;3.27;;;;;;;;;;5031941;28;20228;-71
2022/05/12 01:00:43;;;;;;;5.50;3.33;;;;;;;;;;5032837;28;20299;-72
2022/05/12 01:03:13;;;;;;;4.90;3.20;;;;;;;;;;5033086;28;20208;-72
2022/05/12 01:05:42;;;;;;;5.50;3.60;;;;;;;;;;5030163;28;20212;-72
2022/05/12 01:08:11;;;;;;;6.77;3.30;;;;;;;;;;5032292;28;20638;-72
2022/05/12 01:10:40;;;;;;;4.70;3.20;;;;;;;;;;5032320;28;20212;-71
2022/05/12 01:13:09;;;;;;;4.17;2.83;;;;;;;;;;5031382;28;20663;-72
2022/05/12 01:15:38;;;;;;;5.27;2.83;;;;;;;;;;5030750;28;20212;-72
2022/05/12 01:18:09;;;;;;;3.80;2.57;;;;;;;;;;5032223;28;20315;-72
2022/05/12 01:20:39;;;;;;;8.90;2.93;;;;;;;;;;5030284;28;20238;-72
2022/05/12 01:23:16;;;;;;;4.27;2.90;;;;;;;;;;5031881;28;20298;-72
2022/05/12 01:25:44;;;;;;;4.13;2.50;;;;;;;;;;5030828;28;20203;-72
2022/05/12 01:28:13;;;;;;;4.73;2.83;;;;;;;;;;5030252;28;20219;-71
2022/05/12 01:30:42;;;;;;;4.40;2.73;;;;;;;;;;5032075;28;20698;-71
2022/05/12 01:33:10;;;;;;;5.43;2.70;;;;;;;;;;5032675;28;20291;-73
2022/05/12 01:35:39;;;;;;;3.57;2.57;;;;;;;;;;5034169;28;20265;-71
2022/05/12 01:38:07;;;;;;;3.43;2.17;;;;;;;;;;5033526;28;20278;-71
2022/05/12 01:40:37;;;;;;;3.27;1.67;;;;;;;;;;5031382;28;20207;-71
2022/05/12 01:43:05;;;;;;;5.30;2.13;;;;;;;;;;5031294;28;20203;-72
2022/05/12 01:45:34;;;;;;;3.33;1.40;;;;;;;;;;5030977;28;20208;-71
2022/05/12 01:48:02;;;;;;;3.40;1.43;;;;;;;;;;5031753;28;20988;-72
2022/05/12 01:50:31;;;;;;;4.73;1.50;;;;;;;;;;5031478;28;20706;-71
2022/05/12 01:52:59;;;;;;;3.23;1.60;;;;;;;;;;5032007;28;20200;-71
2022/05/12 01:55:28;;;;;;;2.80;1.53;;;;;;;;;;5030464;28;20203;-71
2022/05/12 01:57:58;;;;;;;4.23;1.87;;;;;;;;;;5032071;28;20234;-70
2022/05/12 02:00:28;;;;;;;5.60;1.60;;;;;;;;;;5031695;28;20200;-71
2022/05/12 02:03:00;;;;;;;3.27;1.47;;;;;;;;;;5032198;28;20215;-70
2022/05/12 02:05:30;;;;;;;5.60;1.43;;;;;;;;;;5030001;28;20294;-71
2022/05/12 02:07:59;;;;;;;5.13;2.60;;;;;;;;;;5031516;28;20239;-72
2022/05/12 02:10:29;;;;;;;5.63;1.50;;;;;;;;;;5031337;28;20282;-72
2022/05/12 02:12:59;;;;;;;1.73;1.40;;;;;;;;;;5031624;28;20212;-72
2022/05/12 02:15:28;;;;;;;3.50;2.00;;;;;;;;;;5030576;28;20208;-70
2022/05/12 02:17:56;;;;;;;4.27;1.70;;;;;;;;;;5031196;28;20223;-71
2022/05/12 02:20:25;;;;;;;4.47;1.80;;;;;;;;;;5031889;28;20200;-70
2022/05/12 02:22:53;;;;;;;6.17;1.50;;;;;;;;;;5031576;28;20214;-71
2022/05/12 02:25:22;;;;;;;2.97;1.43;;;;;;;;;;5029348;28;20265;-71
2022/05/12 02:27:51;;;;;;;4.97;1.60;;;;;;;;;;5031288;28;20702;-71
2022/05/12 02:30:23;;;;;;;3.30;1.57;;;;;;;;;;5030650;28;20223;-71
2022/05/12 02:32:52;;;;;;;4.63;2.00;;;;;;;;;;5029644;28;20204;-72
2022/05/12 02:35:20;;;;;;;3.47;1.20;;;;;;;;;;5029939;28;20205;-71
2022/05/12 02:37:49;;;;;;;4.23;1.87;;;;;;;;;;5030922;28;20802;-72
2022/05/12 02:40:18;;;;;;;4.70;1.67;;;;;;;;;;5031333;28;20203;-71
2022/05/12 02:42:47;;;;;;;4.57;2.70;;;;;;;;;;5031303;28;20207;-70
2022/05/12 02:45:16;;;;;;;2.67;1.60;;;;;;;;;;5029920;28;20561;-71
2022/05/12 02:47:46;;;;;;;2.43;1.40;;;;;;;;;;5030024;28;20227;-72
2022/05/12 02:50:16;;;;;;;3.30;1.50;;;;;;;;;;5030834;28;20231;-72
2022/05/12 02:52:45;;;;;;;2.87;1.43;;;;;;;;;;5032502;28;20203;-71
2022/05/12 02:55:13;;;;;;;2.70;1.50;;;;;;;;;;5033747;28;20211;-72
2022/05/12 02:57:43;;;;;;;3.10;1.60;;;;;;;;;;5031062;28;20694;-71
2022/05/12 03:00:16;;;;;;;2.63;1.40;;;;;;;;;;5030868;28;20242;-72
2022/05/12 03:02:46;;;;;;;4.23;2.30;;;;;;;;;;5030099;28;20200;-70
2022/05/12 03:05:15;;;;;;;2.30;1.40;;;;;;;;;;5028121;28;20574;-71
2022/05/12 03:07:44;;;;;;;3.83;1.70;;;;;;;;;;5029505;28;20235;-71
2022/05/12 03:10:13;;;;;;;3.70;1.40;;;;;;;;;;5030033;28;20695;-72
2022/05/12 03:12:41;;;;;;;2.53;1.20;;;;;;;;;;5047968;28;20206;-71
2022/05/12 03:15:11;;;;;;;2.93;1.63;;;;;;;;;;5035197;28;20204;-71
2022/05/12 03:17:43;;;;;;;4.47;1.60;;;;;;;;;;5030671;28;20273;-72
2022/05/12 03:20:15;;;;;;;4.73;1.53;;;;;;;;;;5029863;28;20265;-72
2022/05/12 03:22:43;;;;;;;2.77;1.40;;;;;;;;;;5030680;28;20545;-72
2022/05/12 03:25:13;;;;;;;1.93;1.30;;;;;;;;;;5029259;28;20670;-71
2022/05/12 03:27:41;;;;;;;2.17;1.40;;;;;;;;;;5028649;28;20220;-72
2022/05/12 03:30:12;;;;;;;3.87;1.53;;;;;;;;;;5030314;28;20227;-71
2022/05/12 03:32:41;;;;;;;1.80;1.50;;;;;;;;;;5029767;28;20599;-72
2022/05/12 03:35:11;;;;;;;2.60;1.60;;;;;;;;;;5029919;28;20389;-71
2022/05/12 03:37:42;;;;;;;3.20;1.40;;;;;;;;;;5034561;28;20350;-71
2022/05/12 03:40:11;;;;;;;3.20;1.53;;;;;;;;;;5030693;28;20617;-71
2022/05/12 03:42:40;;;;;;;4.43;1.50;;;;;;;;;;5030230;28;20270;-72
2022/05/12 03:45:08;;;;;;;4.00;1.40;;;;;;;;;;5032662;28;20208;-72
2022/05/12 03:47:39;;;;;;;3.00;1.30;;;;;;;;;;5033633;28;20233;-71
2022/05/12 03:50:09;;;;;;;2.73;1.57;;;;;;;;;;5036888;28;20227;-71
2022/05/12 03:52:45;;;;;;;3.37;1.27;;;;;;;;;;5030801;28;20211;-72
2022/05/12 03:55:16;;;;;;;3.17;1.37;;;;;;;;;;5027351;28;20203;-72
2022/05/12 03:57:45;;;;;;;2.67;1.47;;;;;;;;;;5036736;28;20563;-72
2022/05/12 04:00:15;;;;;;;4.73;1.83;;;;;;;;;;5036751;28;20602;-71
2022/05/12 04:02:44;;;;;;;7.30;1.60;;;;;;;;;;5033848;28;20204;-71
2022/05/12 04:05:12;;;;;;;3.27;1.40;;;;;;;;;;5034702;28;20204;-71
2022/05/12 04:07:51;;;;;;;3.10;1.40;;;;;;;;;;5036013;28;20629;-71
2022/05/12 04:10:20;;;;;;;2.63;1.30;;;;;;;;;;5036377;28;20230;-71
2022/05/12 04:12:48;;;;;;;2.17;1.30;;;;;;;;;;5036423;28;20255;-71
2022/05/12 04:15:16;;;;;;;3.23;1.37;;;;;;;;;;5036436;28;20212;-71
2022/05/12 04:17:47;;;;;;;2.83;1.43;;;;;;;;;;5032751;28;20220;-71
2022/05/12 04:20:15;;;;;;;3.10;1.20;;;;;;;;;;5033842;28;20254;-71
2022/05/12 04:22:44;;;;;;;2.30;1.30;;;;;;;;;;5033720;28;20214;-73
2022/05/12 04:25:13;;;;;;;4.27;1.30;;;;;;;;;;5032980;28;20242;-71
2022/05/12 04:27:42;;;;;;;4.23;1.70;;;;;;;;;;5032215;28;20223;-71
2022/05/12 04:30:12;;;;;;;2.20;1.43;;;;;;;;;;5032395;28;20663;-72
2022/05/12 04:32:41;;;;;;;3.00;1.43;;;;;;;;;;5016598;28;20204;-70
2022/05/12 04:35:12;;;;;;;3.93;1.30;;;;;;;;;;5021191;28;20207;-72
2022/05/12 04:37:44;;;;;;;4.23;1.43;;;;;;;;;;5033390;28;20333;-71
2022/05/12 04:40:15;;;;;;;1.50;1.23;;;;;;;;;;5033155;28;20219;-72
2022/05/12 04:42:44;;;;;;;2.87;1.40;;;;;;;;;;5032464;28;20222;-72
2022/05/12 04:45:14;;;;;;;4.43;1.57;;;;;;;;;;5032787;28;20207;-72
2022/05/12 04:47:43;;;;;;;3.17;1.40;;;;;;;;;;5032964;28;20219;-73
2022/05/12 04:50:13;;;;;;;3.00;1.57;;;;;;;;;;5032970;28;20736;-73
2022/05/12 04:52:42;;;;;;;5.73;1.50;;;;;;;;;;5032269;28;20243;-71
2022/05/12 04:55:11;;;;;;;3.23;1.37;;;;;;;;;;5029883;28;20216;-72
2022/05/12 04:57:42;;;;;;;4.27;1.43;;;;;;;;;;5027803;28;20232;-71
2022/05/12 05:00:13;;;;;;;4.70;1.70;;;;;;;;;;5031676;28;20211;-72
2022/05/12 05:02:42;;;;;;;2.70;1.40;;;;;;;;;;5032277;28;20200;-72
2022/05/12 05:05:11;;;;;;;3.13;1.50;;;;;;;;;;5031753;28;20218;-71
2022/05/12 05:07:41;;;;;;;3.80;1.50;;;;;;;;;;5030230;28;20223;-71
2022/05/12 05:10:11;;;;;;;3.20;1.50;;;;;;;;;;5031105;28;20810;-72
2022/05/12 05:12:43;;;;;;;2.27;1.70;;;;;;;;;;5032593;28;20313;-73
2022/05/12 05:15:12;;;;;;;4.07;1.50;;;;;;;;;;5031742;28;20254;-72
2022/05/12 05:17:43;;;;;;;2.43;1.40;;;;;;;;;;5032216;28;20250;-72
2022/05/12 05:20:13;;;;;;;3.50;1.40;;;;;;;;;;5033897;28;20212;-72
2022/05/12 05:22:46;;;;;;;2.67;1.40;;;;;;;;;;5032225;28;20184;-72
2022/05/12 05:25:24;;;;;;;3.27;1.70;;;;;;;;;;5022820;28;20207;-72
2022/05/12 05:27:58;;;;;;;3.83;1.50;;;;;;;;;;5030716;28;20649;-72
2022/05/12 05:30:27;;;;;;;2.00;1.30;;;;;;;;;;5030989;28;20219;-74
2022/05/12 05:32:56;;;;;;;5.43;1.70;;;;;;;;;;5035537;28;20185;-71
2022/05/12 05:35:27;;;;;;;3.30;1.60;;;;;;;;;;5032092;28;20215;-71
2022/05/12 05:37:57;;;;;;;1.90;1.30;;;;;;;;;;5031475;28;20227;-71
2022/05/12 05:40:27;;;;;;;3.77;1.47;;;;;;;;;;5022844;28;20262;-71
2022/05/12 05:42:56;;;;;;;3.67;1.70;;;;;;;;;;5032151;28;20554;-72
2022/05/12 05:45:26;;;;;;;6.53;1.60;;;;;;;;;;5030458;28;20232;-71
2022/05/12 05:47:58;;;;;;;2.57;1.50;;;;;;;;;;5031180;28;20240;-71
2022/05/12 05:50:28;;;;;;;3.77;1.60;;;;;;;;;;5030378;28;20210;-72
2022/05/12 05:55:43;;;;;;;3.47;1.70;;;;;;;;;;5030823;28;20258;-73
2022/05/12 05:58:11;;;;;;;4.63;1.70;;;;;;;;;;5026345;28;20865;-73
2022/05/12 06:00:43;;;;;;;2.53;1.70;;;;;;;;;;5028181;28;20203;-73
2022/05/12 06:03:12;;;;;;;5.20;1.73;;;;;;;;;;5026566;28;20250;-71
2022/05/12 06:05:44;;;;;;;3.87;1.73;;;;;;;;;;5011905;28;20218;-71
2022/05/12 06:08:14;;;;;;;5.73;1.80;;;;;;;;;;5015958;28;20227;-71
2022/05/12 06:10:43;;;;;;;1.87;1.60;;;;;;;;;;5021730;28;20239;-72
2022/05/12 06:13:12;;;;;;;5.07;1.80;;;;;;;;;;5019818;28;20684;-71
2022/05/12 06:15:43;;;;;;;4.17;1.83;;;;;;;;;;5031285;28;20200;-71
2022/05/12 06:18:14;;;;;;;6.23;2.20;;;;;;;;;;5030295;28;20227;-71
2022/05/12 06:20:43;;;;;;;4.03;1.97;;;;;;;;;;5030886;28;20748;-72
2022/05/12 06:23:12;;;;;;;4.00;1.60;;;;;;;;;;5035646;28;20207;-71
2022/05/12 06:25:41;;;;;;;4.80;1.70;;;;;;;;;;5031111;28;20737;-73
2022/05/12 06:28:09;;;;;;;4.40;1.77;;;;;;;;;;5029667;28;20224;-70
2022/05/12 06:30:39;;;;;;;3.03;2.20;;;;;;;;;;5031854;28;20266;-71
2022/05/12 06:33:15;;;;;;;4.00;1.50;;;;;;;;;;5049545;28;20219;-72
2022/05/12 06:35:45;;;;;;;3.83;1.73;;;;;;;;;;5033513;28;20207;-71
2022/05/12 06:38:13;;;;;;;5.33;1.80;;;;;;;;;;5031566;28;20224;-70
2022/05/12 06:40:41;;;;;;;6.23;1.60;;;;;;;;;;5029660;28;20237;-72
2022/05/12 06:43:11;;;;;;;4.17;1.90;;;;;;;;;;5029174;28;20196;-70
2022/05/12 06:45:40;;;;;;;5.27;1.60;;;;;;;;;;5028970;28;20215;-72
2022/05/12 06:48:11;;;;;;;4.90;1.60;;;;;;;;;;5028768;28;20231;-71
2022/05/12 06:50:39;;;;;;;3.57;1.63;;;;;;;;;;5031741;28;20330;-74
2022/05/12 06:53:09;;;;;;;5.23;1.73;;;;;;;;;;5031552;28;20675;-73
2022/05/12 06:55:37;;;;;;;4.57;1.63;;;;;;;;;;5029536;28;20211;-72
2022/05/12 06:58:06;;;;;;;4.93;2.00;;;;;;;;;;5029154;28;20231;-71
2022/05/12 07:00:35;;;;;;;4.37;1.63;;;;;;;;;;5029657;28;20203;-71
2022/05/12 07:03:04;;;;;;;4.23;1.73;;;;;;;;;;5029315;28;20254;-72
2022/05/12 07:05:38;;;;;;;4.67;1.63;;;;;;;;;;5027629;28;20287;-72
2022/05/12 07:08:08;;;;;;;4.97;1.60;;;;;;;;;;5026837;28;20228;-73
2022/05/12 07:10:36;;;;;;;5.03;1.67;;;;;;;;;;5028954;28;20196;-73
2022/05/12 07:13:05;;;;;;;4.73;1.83;;;;;;;;;;5030547;28;20227;-72
2022/05/12 07:15:33;;;;;;;3.17;1.47;;;;;;;;;;5028992;28;20199;-71
2022/05/12 07:18:02;;;;;;;3.43;1.67;;;;;;;;;;5013047;28;20702;-72
2022/05/12 07:28:50;;;;;;;3.67;1.83;;;;;;;;;;5015129;28;20223;-73
2022/05/12 07:31:18;;;;;;;4.53;1.77;;;;;;;;;;5019633;28;20216;-72
2022/05/12 07:33:48;;;;;;;3.87;1.83;;;;;;;;;;5012963;28;20626;-73
2022/05/12 07:36:17;;;;;;;3.63;1.90;;;;;;;;;;5012671;28;20298;-74
2022/05/12 07:38:48;;;;;;;5.37;2.10;;;;;;;;;;5027507;28;20224;-71
2022/05/12 07:41:17;;;;;;;4.47;1.80;;;;;;;;;;5022520;28;20733;-72
2022/05/12 07:43:46;;;;;;;2.30;1.77;;;;;;;;;;5018572;28;20547;-70
2022/05/12 07:46:17;;;;;;;4.67;2.10;;;;;;;;;;5027748;28;20210;-72
2022/05/12 07:48:46;;;;;;;6.27;2.30;;;;;;;;;;5033516;28;20285;-73
2022/05/12 07:51:14;;;;;;;4.63;2.00;;;;;;;;;;5030091;28;20257;-73
2022/05/12 07:53:43;;;;;;;3.77;1.90;;;;;;;;;;5028691;28;20228;-73
2022/05/12 07:56:13;;;;;;;4.97;1.80;;;;;;;;;;5027964;28;20208;-71
2022/05/12 07:58:41;;;;;;;4.90;1.77;;;;;;;;;;5027162;28;20215;-73
2022/05/12 08:01:10;;;;;;;5.03;1.90;;;;;;;;;;5030557;28;20207;-73
2022/05/12 08:03:39;;;;;;;4.27;2.10;;;;;;;;;;5028527;28;20203;-72
2022/05/12 08:06:08;;;;;;;3.67;1.93;;;;;;;;;;5028950;28;20207;-72
2022/05/12 08:08:37;;;;;;;3.67;1.80;;;;;;;;;;5042186;28;20234;-71
2022/05/12 08:11:06;;;;;;;2.67;1.60;;;;;;;;;;5029545;28;20673;-73
2022/05/12 08:13:36;;;;;;;4.10;1.67;;;;;;;;;;5029439;28;20223;-74
2022/05/12 08:16:05;;;;;;;6.47;1.93;;;;;;;;;;5029692;28;20215;-73
2022/05/12 08:18:45;;;;;;;3.37;1.73;;;;;;;;;;5031947;28;20235;-73
2022/05/12 08:21:14;;;;;;;4.80;1.70;;;;;;;;;;5032335;28;20220;-72
2022/05/12 08:23:43;;;;;;;3.17;1.70;;;;;;;;;;5029654;28;20208;-73
2022/05/12 08:26:12;;;;;;;2.70;1.60;;;;;;;;;;5032393;28;20258;-71
2022/05/12 08:28:42;;;;;;;4.57;1.87;;;;;;;;;;5032007;28;20238;-73
2022/05/12 08:31:11;;;;;;;5.80;1.70;;;;;;;;;;5034940;28;20208;-73
2022/05/12 08:33:39;;;;;;;3.23;1.53;;;;;;;;;;5034735;28;20224;-73
2022/05/12 08:36:08;;;;;;;2.70;1.70;;;;;;;;;;5036404;28;20211;-73
2022/05/12 08:38:40;;;;;;;2.93;1.70;;;;;;;;;;5035879;28;20298;-72
2022/05/12 08:41:17;;;;;;;3.40;1.40;;;;;;;;;;5035541;28;20195;-74
2022/05/12 08:43:53;;;;;;;5.00;1.40;;;;;;;;;;5031743;28;20579;-73
2022/05/12 08:46:23;;;;;;;2.67;1.60;;;;;;;;;;5029465;28;20607;-72
2022/05/12 08:48:54;;;;;;;2.90;1.58;;;;;;;;;;5035442;28;20224;-73
2022/05/12 08:51:23;;;;;;;2.50;1.50;;;;;;;;;;5034636;28;20685;-73
2022/05/12 08:53:55;;;;;;;4.55;1.52;;;;;;;;;;5033949;28;20593;-74
2022/05/12 08:56:25;;;;;;;3.67;1.70;;;;;;;;;;5035339;28;20551;-74
2022/05/12 08:58:55;;;;;;;3.10;1.42;;;;;;;;;;5034345;28;20232;-72
2022/05/12 09:01:28;;;;;;;2.97;1.48;;;;;;;;;;5032620;28;20215;-74
2022/05/12 09:04:04;;;;;;;2.90;1.50;;;;;;;;;;5034909;28;20196;-74
2022/05/12 09:06:35;;;;;;;5.97;2.30;;;;;;;;;;5027907;28;20206;-73
2022/05/12 09:09:06;;;;;;;6.10;1.60;;;;;;;;;;5030667;28;20278;-73
2022/05/12 09:11:39;;;;;;;2.50;1.60;;;;;;;;;;5031966;28;20204;-73
2022/05/12 09:14:12;;;;;;;6.10;5.50;;;;;;;;;;5032550;28;20636;-74
2022/05/12 09:16:41;;;;;;;4.07;1.80;;;;;;;;;;5032095;28;20595;-72
2022/05/12 09:19:11;;;;;;;2.95;1.63;;;;;;;;;;5032233;28;20200;-72
2022/05/12 09:21:40;;;;;;;3.20;1.85;;;;;;;;;;5035222;28;20250;-73
2022/05/12 09:24:08;;;;;;;5.13;1.35;;;;;;;;;;5034745;28;20196;-73
2022/05/12 09:26:39;;;;;;;1.75;1.10;;;;;;;;;;5035030;28;20207;-72
2022/05/12 09:29:17;;;;;;;3.35;1.27;;;;;;;;;;5033346;28;20203;-75
2022/05/12 09:31:47;;;;;;;1.98;1.10;;;;;;;;;;5034393;28;20212;-72
2022/05/12 09:34:27;;;;;;;2.22;1.30;;;;;;;;;;5034698;28;20231;-72
2022/05/12 09:36:55;;;;;;;1.95;1.30;;;;;;;;;;5034104;28;20269;-73
2022/05/12 09:39:35;;;;;;;3.25;1.70;;;;;;;;;;5034119;28;20211;-72
2022/05/12 09:42:04;;;;;;;2.67;1.63;;;;;;;;;;5033554;28;20196;-73
2022/05/12 09:44:34;;;;;;;1.75;1.42;;;;;;;;;;5034596;28;20196;-72
2022/05/12 09:47:06;;;;;;;2.42;1.30;;;;;;;;;;5034138;28;20232;-72
2022/05/12 09:49:38;;;;;;;2.00;1.30;;;;;;;;;;5034555;28;20203;-73
2022/05/12 09:52:26;;;;;;;2.70;1.40;;;;;;;;;;5033721;28;20816;-72
2022/05/12 09:55:09;;;;;;;2.63;1.63;;;;;;;;;;5033029;28;20311;-73
2022/05/12 09:57:46;;;;;;;2.75;1.48;;;;;;;;;;5034602;28;20227;-72
2022/05/12 10:00:26;;;;;;;3.35;1.60;;;;;;;;;;5024463;28;20210;-72
2022/05/12 10:08:44;;;;;;;2.50;1.33;;;;;;;;;;5034384;28;20588;-73
2022/05/12 10:11:14;;;;;;;3.50;1.50;;;;;;;;;;5050450;28;20234;-74
2022/05/12 10:13:46;;;;;;;2.10;1.30;;;;;;;;;;5037446;28;20230;-73
2022/05/12 10:16:17;;;;;;;2.17;1.33;;;;;;;;;;5033551;28;20200;-72
2022/05/12 10:18:47;;;;;;;4.15;1.63;;;;;;;;;;5033827;28;20224;-73
2022/05/12 10:21:23;;;;;;;5.18;1.42;;;;;;;;;;5034840;28;20246;-74
2022/05/12 10:23:55;;;;;;;3.10;1.33;;;;;;;;;;5033373;28;20682;-72
2022/05/12 10:26:26;;;;;;;2.38;1.38;;;;;;;;;;5032819;28;20212;-72
2022/05/12 10:28:55;;;;;;;2.70;1.30;;;;;;;;;;5032995;28;20258;-73
2022/05/12 10:31:26;;;;;;;3.45;1.30;;;;;;;;;;5032511;28;20211;-73
2022/05/12 10:34:13;;;;;;;2.90;1.25;;;;;;;;;;5027452;28;20242;-73
2022/05/12 10:36:49;;;;;;;2.25;1.30;;;;;;;;;;5021303;28;20212;-73
2022/05/12 10:39:27;;;;;;;2.85;1.13;;;;;;;;;;5032350;28;20253;-73
2022/05/12 10:42:02;;;;;;;1.67;1.17;;;;;;;;;;5033787;28;20207;-72
2022/05/12 10:44:44;;;;;;;1.95;1.30;;;;;;;;;;5032522;28;20207;-73
2022/05/12 10:47:20;;;;;;;1.80;1.10;;;;;;;;;;5032713;28;20220;-73
2022/05/12 10:49:55;;;;;;;1.10;0.90;;;;;;;;;;5026880;28;20207;-72
2022/05/12 10:52:27;;;;;;;2.83;1.27;;;;;;;;;;5013333;28;20270;-73
2022/05/12 10:55:03;;;;;;;1.88;1.13;;;;;;;;;;5030503;28;20218;-73
2022/05/12 10:57:37;;;;;;;1.77;1.20;;;;;;;;;;5031788;28;20231;-73
2022/05/12 11:00:22;;;;;;;2.45;1.17;;;;;;;;;;5028944;28;20266;-73
2022/05/12 11:02:55;;;;;;;4.78;1.40;;;;;;;;;;5033117;28;20577;-73
2022/05/12 11:05:29;;;;;;;3.17;1.30;;;;;;;;;;5032270;28;20204;-73
2022/05/12 11:08:04;;;;;;;2.72;1.27;;;;;;;;;;5031191;28;20243;-74
2022/05/12 11:10:35;;;;;;;2.45;1.33;;;;;;;;;;5030840;28;20211;-73
2022/05/12 11:13:09;;;;;;;1.52;1.30;;;;;;;;;;5028277;28;20659;-73
2022/05/12 11:15:45;;;;;;;2.28;1.10;;;;;;;;;;5030203;28;20590;-74
2022/05/12 11:18:18;;;;;;;3.28;1.48;;;;;;;;;;5033891;28;20245;-73
2022/05/12 11:20:50;;;;;;;1.95;1.23;;;;;;;;;;5021034;28;20250;-73
2022/05/12 11:23:24;;;;;;;2.88;1.30;;;;;;;;;;5030149;28;20757;-73
2022/05/12 11:25:58;;;;;;;3.95;1.63;;;;;;;;;;5031718;28;20187;-74
2022/05/12 11:31:21;;;;;;;4.07;1.60;;;;;;;;;;5031554;28;20215;-74
2022/05/12 11:33:52;;;;;;;3.38;1.20;;;;;;;;;;5030004;28;20257;-73
2022/05/12 11:36:21;;;;;;;3.40;1.40;;;;;;;;;;5020391;28;20216;-72
2022/05/12 11:38:51;;;;;;;3.80;1.50;;;;;;;;;;5029249;28;20231;-74
2022/05/12 11:41:36;;;;;;;2.92;1.30;;;;;;;;;;5031993;28;20222;-74
2022/05/12 11:44:26;;;;;;;2.47;1.33;;;;;;;;;;5033339;28;20211;-73
2022/05/12 11:47:04;;;;;;;3.85;1.20;;;;;;;;;;5031340;28;20675;-74
2022/05/12 11:49:40;;;;;;;2.08;1.15;;;;;;;;;;5032186;28;20242;-72
2022/05/12 11:52:29;;;;;;;5.78;1.20;;;;;;;;;;5028256;28;20205;-73
2022/05/12 11:54:59;;;;;;;3.30;1.70;;;;;;;;;;5026528;28;20748;-73
2022/05/12 11:57:31;;;;;;;2.05;1.25;;;;;;;;;;5032685;28;20220;-73
2022/05/12 12:00:01;;;;;;;3.25;1.67;;;;;;;;;;5032092;28;20254;-72
2022/05/12 12:02:46;;;;;;;3.45;2.78;;;;;;;;;;5031755;28;20620;-73
2022/05/12 12:05:31;;;;;;;2.22;2.03;;;;;;;;;;5036026;28;20211;-73
2022/05/12 12:08:02;;;;;;;3.45;1.50;;;;;;;;;;5035646;28;20223;-73
2022/05/12 12:10:32;;;;;;;2.08;1.20;;;;;;;;;;5036348;28;20554;-73
2022/05/12 12:13:02;;;;;;;1.25;1.15;;;;;;;;;;5036255;28;20211;-73
2022/05/12 12:15:42;;;;;;;2.03;1.13;;;;;;;;;;5030993;28;20224;-73
2022/05/12 12:18:29;;;;;;;2.92;1.23;;;;;;;;;;5028698;28;20223;-74
2022/05/12 12:20:58;;;;;;;4.00;1.30;;;;;;;;;;5034981;28;20204;-73
2022/05/12 12:23:30;;;;;;;2.65;1.13;;;;;;;;;;5036264;28;20203;-75
2022/05/12 12:26:00;;;;;;;3.15;1.30;;;;;;;;;;5034715;28;20199;-73
2022/05/12 12:28:32;;;;;;;2.15;1.30;;;;;;;;;;5036250;28;20226;-75
2022/05/12 12:31:06;;;;;;;2.42;1.23;;;;;;;;;;5033118;28;20612;-73
2022/05/12 12:33:43;;;;;;;1.90;1.20;;;;;;;;;;5035461;28;20220;-74
2022/05/12 12:36:26;;;;;;;1.65;1.30;;;;;;;;;;5035802;28;20715;-73
2022/05/12 12:39:06;;;;;;;3.80;1.50;;;;;;;;;;5034451;28;20592;-74
2022/05/12 12:41:52;;;;;;;1.92;1.63;;;;;;;;;;5042251;28;20203;-74
2022/05/12 12:44:23;;;;;;;2.08;1.08;;;;;;;;;;5031403;28;20207;-73
2022/05/12 12:46:58;;;;;;;2.03;1.40;;;;;;;;;;5033498;28;20207;-74
2022/05/12 12:49:29;;;;;;;4.90;1.27;;;;;;;;;;5034411;28;20230;-73
2022/05/12 12:51:59;;;;;;;4.20;1.40;;;;;;;;;;5019366;28;20200;-72
2022/05/12 12:57:41;;;;;;;2.53;1.50;;;;;;;;;;5035080;28;20327;-72
2022/05/12 13:00:11;;;;;;;1.95;1.30;;;;;;;;;;5034230;28;20199;-73
2022/05/12 13:02:41;;;;;;;2.33;1.40;;;;;;;;;;5030502;28;20200;-74
2022/05/12 13:05:11;;;;;;;1.98;1.25;;;;;;;;;;5029634;28;20207;-73
2022/05/12 13:07:41;;;;;;;2.05;1.20;;;;;;;;;;5035282;28;20227;-72
2022/05/12 13:10:16;;;;;;;1.70;1.27;;;;;;;;;;5035511;28;20262;-73
2022/05/12 13:12:52;;;;;;;2.45;1.20;;;;;;;;;;5035299;28;20211;-73
2022/05/12 13:15:22;;;;;;;2.55;1.10;;;;;;;;;;5034060;28;20634;-74
2022/05/12 13:17:51;;;;;;;2.35;1.38;;;;;;;;;;5020387;28;20232;-73
2022/05/12 13:20:40;;;;;;;2.25;1.30;;;;;;;;;;5031963;28;20211;-73
2022/05/12 13:23:13;;;;;;;3.65;1.42;;;;;;;;;;5035802;28;20211;-73
2022/05/12 13:25:47;;;;;;;2.42;1.10;;;;;;;;;;5035882;28;20757;-72
2022/05/12 13:28:18;;;;;;;2.40;1.20;;;;;;;;;;5035519;28;20297;-72
2022/05/12 13:30:47;;;;;;;3.53;1.40;;;;;;;;;;5035091;28;20293;-73
2022/05/12 13:33:21;;;;;;;4.63;1.77;;;;;;;;;;5034124;28;20204;-73
2022/05/12 13:35:56;;;;;;;2.90;1.30;;;;;;;;;;5034430;28;20281;-73
2022/05/12 13:38:28;;;;;;;3.15;1.35;;;;;;;;;;5034783;28;20228;-73
2022/05/12 13:40:59;;;;;;;1.73;1.20;;;;;;;;;;5049302;28;20591;-74
2022/05/12 13:43:30;;;;;;;2.00;1.38;;;;;;;;;;5055072;28;20240;-74
2022/05/12 13:46:11;;;;;;;3.05;1.30;;;;;;;;;;5054849;28;20203;-74
2022/05/12 13:48:57;;;;;;;2.13;1.35;;;;;;;;;;5046855;28;20258;-73
2022/05/12 13:51:49;;;;;;;2.60;1.10;;;;;;;;;;5021629;28;20208;-73
2022/05/12 13:54:37;;;;;;;3.65;1.40;;;;;;;;;;5018090;28;20644;-73
2022/05/12 13:57:21;;;;;;;2.15;1.20;;;;;;;;;;5032774;28;20228;-73
2022/05/12 13:59:55;;;;;;;2.33;1.15;;;;;;;;;;5031794;28;20208;-73
2022/05/12 14:02:38;;;;;;;2.38;1.20;;;;;;;;;;4338642;28;10000722;-73
2022/05/12 14:05:11;;;;;;;3.65;1.38;;;;;;;;;;5040992;28;20208;-72
2022/05/12 14:07:41;;;;;;;2.42;1.38;;;;;;;;;;5030507;28;20220;-73
2022/05/12 14:10:18;;;;;;;2.95;1.30;;;;;;;;;;5029208;28;20212;-73
2022/05/12 14:21:29;;;;;;;2.83;1.52;;;;;;;;;;5034835;28;20207;-72
2022/05/12 14:23:57;;;;;;;2.65;1.27;;;;;;;;;;5034068;28;20210;-72
2022/05/12 14:26:26;;;;;;;2.47;1.40;;;;;;;;;;5031850;28;20257;-73
2022/05/12 14:28:55;;;;;;;1.85;1.10;;;;;;;;;;5031521;28;20607;-74
2022/05/12 14:31:25;;;;;;;2.88;1.30;;;;;;;;;;5032849;28;20211;-74
2022/05/12 14:33:54;;;;;;;3.60;1.30;;;;;;;;;;5033313;28;20207;-75
2022/05/12 14:36:23;;;;;;;2.85;1.50;;;;;;;;;;5027479;28;20265;-74
2022/05/12 14:38:52;;;;;;;5.55;1.50;;;;;;;;;;5024140;28;20278;-74
2022/05/12 14:41:25;;;;;;;3.65;1.45;;;;;;;;;;5028694;28;20299;-75
2022/05/12 14:43:55;;;;;;;2.60;1.35;;;;;;;;;;5028849;28;20204;-74
2022/05/12 14:46:25;;;;;;;1.98;1.20;;;;;;;;;;5029018;28;20571;-74
2022/05/12 14:48:54;;;;;;;3.40;1.60;;;;;;;;;;5030780;28;20266;-75
2022/05/12 14:51:24;;;;;;;2.45;1.38;;;;;;;;;;5022474;28;20652;-74
2022/05/12 14:53:52;;;;;;;1.70;1.38;;;;;;;;;;5032013;28;20204;-73
2022/05/12 14:56:21;;;;;;;2.42;1.33;;;;;;;;;;5032206;28;20216;-74
2022/05/12 14:58:49;;;;;;;3.75;1.63;;;;;;;;;;5031851;28;20314;-73
2022/05/12 15:01:19;;;;;;;4.60;2.28;;;;;;;;;;5028931;28;20228;-73
2022/05/12 15:03:51;;;;;;;4.60;2.05;;;;;;;;;;5021954;28;20564;-74
2022/05/12 15:06:20;;;;;;;6.65;1.80;;;;;;;;;;5013706;28;20200;-73
2022/05/12 15:08:48;;;;;;;3.25;1.45;;;;;;;;;;5026150;28;20227;-75
2022/05/12 15:11:20;;;;;;;3.70;1.58;;;;;;;;;;5033610;28;20199;-74
2022/05/12 15:13:49;;;;;;;6.25;1.40;;;;;;;;;;5029657;28;20250;-74
2022/05/12 15:16:19;;;;;;;4.68;1.90;;;;;;;;;;5031586;28;20274;-74
2022/05/12 15:18:48;;;;;;;2.83;1.52;;;;;;;;;;5031054;28;20227;-74
2022/05/12 15:21:16;;;;;;;5.03;1.33;;;;;;;;;;5032771;28;20253;-75
2022/05/12 15:23:45;;;;;;;3.90;1.83;;;;;;;;;;5032335;28;20199;-74
2022/05/12 15:26:24;;;;;;;3.58;1.60;;;;;;;;;;5032358;28;20192;-73
2022/05/12 15:28:52;;;;;;;4.20;1.45;;;;;;;;;;5033126;28;20235;-74
2022/05/12 15:31:22;;;;;;;2.97;1.60;;;;;;;;;;5031725;28;20216;-74
2022/05/12 15:33:51;;;;;;;3.65;1.63;;;;;;;;;;5031037;28;20286;-75
2022/05/12 15:36:22;;;;;;;2.20;1.60;;;;;;;;;;5032020;28;20219;-74
2022/05/12 15:38:51;;;;;;;3.15;1.58;;;;;;;;;;5034135;28;20288;-73